Time;durP1;ratioP1;P1;durP2;ratioP2;P2;SDS_P1;SDS_P2;PMS_P1;PMS_P2;Temp;Humidity;BMP_temperature;BMP_pressure;BME280_temperature;BME280_humidity;BME280_pressure;Samples;Min_cycle;Max_cycle;Signal;HPM_P1;HPM_P2
2022/04/02 00:00:59;;;;;;;52.78;35.85;;;-1.60;89.60;;;;;;5037608;28;20037;-68
2022/04/02 00:03:25;;;;;;;58.58;37.92;;;-1.60;89.40;;;;;;5034606;28;20038;-68
2022/04/02 00:05:52;;;;;;;48.70;34.20;;;-1.50;89.00;;;;;;5034937;28;20299;-68
2022/04/02 00:08:18;;;;;;;51.22;35.58;;;-1.50;89.40;;;;;;5036621;28;20025;-68
2022/04/02 00:10:44;;;;;;;68.85;41.70;;;-1.50;89.30;;;;;;5029088;28;20053;-68
2022/04/02 00:13:10;;;;;;;50.03;34.53;;;-1.50;89.20;;;;;;5028337;28;20296;-68
2022/04/02 00:15:35;;;;;;;45.92;32.80;;;-1.50;89.00;;;;;;5021801;28;20061;-67
2022/04/02 00:18:01;;;;;;;72.82;42.80;;;-1.50;89.00;;;;;;5027642;28;20440;-68
2022/04/02 00:20:28;;;;;;;56.17;35.10;;;-1.50;89.40;;;;;;5033146;28;20025;-68
2022/04/02 00:25:44;;;;;;;;;;;-1.50;88.40;;;;;;5026670;28;20037;-68
2022/04/02 00:28:14;;;;;;;57.45;38.40;;;-1.50;89.00;;;;;;5027917;28;19947;-68
2022/04/02 00:30:40;;;;;;;48.78;33.08;;;-1.60;89.80;;;;;;5021078;28;21557;-68
2022/04/02 00:33:06;;;;;;;50.75;33.53;;;-1.60;89.10;;;;;;5031601;28;20366;-68
2022/04/02 00:35:35;;;;;;;45.70;32.55;;;-1.60;89.00;;;;;;5023414;28;20077;-67
2022/04/02 00:38:02;;;;;;;42.35;30.45;;;-1.60;88.10;;;;;;5022759;28;20419;-67
2022/04/02 00:40:30;;;;;;;44.65;31.92;;;-1.60;88.60;;;;;;5027167;28;20033;-68
2022/04/02 00:42:56;;;;;;;43.85;31.50;;;-1.50;88.70;;;;;;5019035;28;20022;-68
2022/04/02 00:45:22;;;;;;;51.78;34.42;;;-1.50;88.70;;;;;;5027013;28;20319;-68
2022/04/02 00:47:48;;;;;;;57.75;36.58;;;-1.50;88.70;;;;;;5026714;28;20437;-68
2022/04/02 00:50:17;;;;;;;43.08;30.33;;;-1.60;89.00;;;;;;5019801;28;20060;-67
2022/04/02 00:52:44;;;;;;;52.20;33.72;;;-1.50;87.90;;;;;;5023521;28;20044;-66
2022/04/02 00:55:13;;;;;;;47.05;31.83;;;-1.50;88.60;;;;;;5026498;28;20067;-67
2022/04/02 00:57:39;;;;;;;49.00;32.83;;;-1.60;88.50;;;;;;5021235;28;20029;-68
2022/04/02 01:00:06;;;;;;;39.08;28.23;;;-1.50;88.30;;;;;;5022028;28;20430;-68
2022/04/02 01:02:31;;;;;;;40.83;29.27;;;-1.50;88.10;;;;;;5021568;28;20033;-68
2022/04/02 01:04:57;;;;;;;33.70;25.20;;;-1.50;88.50;;;;;;5022944;28;20030;-67
2022/04/02 01:07:23;;;;;;;47.30;31.80;;;-1.50;88.40;;;;;;5035123;28;20033;-67
2022/04/02 01:09:49;;;;;;;44.50;30.52;;;-1.50;88.80;;;;;;5031879;28;20037;-68
2022/04/02 01:12:15;;;;;;;50.15;32.08;;;-1.50;88.30;;;;;;5021354;28;20018;-68
2022/04/02 01:14:41;;;;;;;47.58;31.67;;;-1.50;88.00;;;;;;5027028;28;20093;-67
2022/04/02 01:17:08;;;;;;;39.83;26.80;;;-1.50;88.50;;;;;;5029527;28;20120;-66
2022/04/02 01:19:34;;;;;;;48.30;32.17;;;-1.50;88.40;;;;;;5024166;28;20014;-67
2022/04/02 01:22:01;;;;;;;45.78;30.48;;;-1.50;88.60;;;;;;5025936;28;20027;-65
2022/04/02 01:24:27;;;;;;;49.85;32.30;;;-1.50;88.50;;;;;;5027138;28;20029;-67
2022/04/02 01:26:53;;;;;;;38.13;26.33;;;-1.50;88.40;;;;;;5020872;28;20104;-67
2022/04/02 01:29:18;;;;;;;43.38;29.05;;;-1.40;88.00;;;;;;5023487;28;20030;-67
2022/04/02 01:31:45;;;;;;;36.72;26.45;;;-1.50;88.30;;;;;;5030422;28;20022;-66
2022/04/02 01:34:11;;;;;;;38.67;26.85;;;-1.50;87.80;;;;;;5030668;28;20029;-68
2022/04/02 01:36:37;;;;;;;38.78;26.67;;;-1.50;88.40;;;;;;5024033;28;20030;-67
2022/04/02 01:39:06;;;;;;;38.63;27.33;;;-1.50;87.70;;;;;;5023738;28;20327;-67
2022/04/02 01:41:32;;;;;;;45.63;29.85;;;-1.40;87.60;;;;;;5015972;28;20339;-67
2022/04/02 01:43:58;;;;;;;41.15;28.17;;;-1.40;87.90;;;;;;5019695;28;20026;-67
2022/04/02 01:46:26;;;;;;;43.60;28.80;;;-1.40;87.90;;;;;;5016898;28;20026;-67
2022/04/02 01:48:52;;;;;;;42.25;28.88;;;-1.40;88.30;;;;;;5021633;28;20041;-66
2022/04/02 01:51:18;;;;;;;48.10;31.42;;;-1.40;87.90;;;;;;5036668;28;20030;-68
2022/04/02 01:53:48;;;;;;;36.00;26.88;;;-1.40;88.00;;;;;;5021684;28;20029;-68
2022/04/02 01:56:14;;;;;;;38.55;27.40;;;-1.40;87.40;;;;;;5030176;28;20469;-68
2022/04/02 01:58:40;;;;;;;42.45;29.42;;;-1.40;87.60;;;;;;5029300;28;20021;-67
2022/04/02 02:01:06;;;;;;;39.47;26.85;;;-1.40;87.90;;;;;;5019268;28;20044;-67
2022/04/02 02:03:35;;;;;;;42.80;30.02;;;-1.40;88.00;;;;;;5026825;28;20087;-68
2022/04/02 02:06:01;;;;;;;54.10;33.70;;;-1.40;88.30;;;;;;5026557;28;20338;-67
2022/04/02 02:08:29;;;;;;;47.53;32.28;;;-1.40;87.60;;;;;;5027164;28;20031;-68
2022/04/02 02:10:55;;;;;;;45.05;30.63;;;-1.40;87.60;;;;;;5019997;28;20038;-68
2022/04/02 02:13:24;;;;;;;56.45;36.25;;;-1.40;87.80;;;;;;5018158;28;20018;-68
2022/04/02 02:15:50;;;;;;;57.20;36.97;;;-1.40;87.90;;;;;;5019295;28;20377;-67
2022/04/02 02:18:16;;;;;;;47.60;32.92;;;-1.40;87.40;;;;;;5030846;28;20026;-68
2022/04/02 02:20:43;;;;;;;61.28;38.17;;;-1.40;87.40;;;;;;5030918;28;20103;-67
2022/04/02 02:23:09;;;;;;;51.70;34.70;;;-1.40;87.90;;;;;;5025669;28;20033;-68
2022/04/02 02:25:38;;;;;;;66.07;40.30;;;-1.30;87.20;;;;;;5033940;28;20080;-68
2022/04/02 02:28:05;;;;;;;52.63;37.15;;;-1.30;87.50;;;;;;5023628;28;20063;-66
2022/04/02 02:30:31;;;;;;;72.35;44.40;;;-1.30;87.40;;;;;;5019620;28;20370;-66
2022/04/02 02:35:49;;;;;;;61.85;40.60;;;-1.30;87.60;;;;;;5019367;28;20026;-66
2022/04/02 02:35:49;;;;;;;67.32;43.33;;;-1.30;87.20;;;;;;5020149;28;20036;-67
2022/04/02 02:38:15;;;;;;;90.28;47.63;;;-1.30;87.50;;;;;;5018302;28;20111;-67
2022/04/02 02:40:41;;;;;;;88.45;47.45;;;-1.30;87.30;;;;;;5022381;28;20021;-67
2022/04/02 02:43:08;;;;;;;65.63;42.53;;;-1.40;87.10;;;;;;5031111;28;20415;-67
2022/04/02 02:45:34;;;;;;;65.75;43.00;;;-1.30;86.60;;;;;;5021772;28;20137;-67
2022/04/02 02:48:02;;;;;;;71.30;44.90;;;-1.30;86.40;;;;;;5021068;28;20105;-67
2022/04/02 02:50:30;;;;;;;67.93;43.58;;;-1.30;86.90;;;;;;5027334;28;20406;-68
2022/04/02 02:52:55;;;;;;;66.60;44.38;;;-1.30;86.20;;;;;;5030681;28;20037;-67
2022/04/02 02:55:22;;;;;;;59.70;39.58;;;-1.30;86.90;;;;;;5024155;28;20024;-68
2022/04/02 02:57:48;;;;;;;63.90;42.42;;;-1.30;86.80;;;;;;5028755;28;20029;-68
2022/04/02 03:00:16;;;;;;;60.13;40.53;;;-1.30;87.20;;;;;;5023134;28;20025;-67
2022/04/02 03:02:43;;;;;;;57.92;40.25;;;-1.30;87.40;;;;;;5030329;28;20355;-68
2022/04/02 03:05:15;;;;;;;56.75;37.95;;;-1.30;87.30;;;;;;5028081;28;20025;-69
2022/04/02 03:07:49;;;;;;;64.10;42.22;;;-1.30;87.30;;;;;;5024066;28;20026;-68
2022/04/02 03:10:19;;;;;;;58.58;40.30;;;-1.30;88.20;;;;;;5018877;28;20050;-68
2022/04/02 03:12:47;;;;;;;66.55;42.42;;;-1.30;88.10;;;;;;5020998;28;20034;-68
2022/04/02 03:15:15;;;;;;;56.35;38.83;;;-1.30;88.20;;;;;;5018694;28;20034;-69
2022/04/02 03:17:43;;;;;;;51.20;36.30;;;-1.30;88.20;;;;;;5019281;28;20033;-68
2022/04/02 03:20:11;;;;;;;50.55;34.97;;;-1.30;88.10;;;;;;5022553;28;20491;-67
2022/04/02 03:22:43;;;;;;;65.88;44.08;;;-1.20;88.00;;;;;;5030200;28;20025;-65
2022/04/02 03:25:14;;;;;;;56.78;38.00;;;-1.20;88.80;;;;;;5029456;28;20303;-66
2022/04/02 03:27:40;;;;;;;54.45;38.17;;;-1.30;88.40;;;;;;5022407;28;20021;-67
2022/04/02 03:30:09;;;;;;;55.30;37.40;;;-1.20;88.60;;;;;;5026595;28;20347;-68
2022/04/02 03:32:35;;;;;;;58.55;37.75;;;-1.30;89.30;;;;;;5016020;28;20018;-68
2022/04/02 03:35:02;;;;;;;60.28;39.67;;;-1.30;89.40;;;;;;5022136;28;20025;-67
2022/04/02 03:37:30;;;;;;;57.15;39.60;;;-1.30;89.80;;;;;;5029206;28;20029;-67
2022/04/02 03:39:57;;;;;;;59.13;39.20;;;-1.30;89.70;;;;;;5023579;28;20080;-68
2022/04/02 03:42:23;;;;;;;55.33;35.78;;;-1.30;90.30;;;;;;5024134;28;20040;-67
2022/04/02 03:44:49;;;;;;;50.88;36.05;;;-1.30;90.20;;;;;;5026591;28;20025;-69
2022/04/02 03:47:15;;;;;;;49.97;35.90;;;-1.30;90.30;;;;;;5022791;28;20308;-68
2022/04/02 03:49:46;;;;;;;52.20;37.05;;;-1.30;90.10;;;;;;5024150;28;20029;-69
2022/04/02 03:52:13;;;;;;;49.05;33.70;;;-1.30;91.00;;;;;;5018124;28;20326;-68
2022/04/02 03:54:40;;;;;;;56.60;38.92;;;-1.30;91.00;;;;;;5023952;28;20097;-68
2022/04/02 03:57:07;;;;;;;54.88;37.13;;;-1.40;91.00;;;;;;5026967;28;20033;-66
2022/04/02 03:59:33;;;;;;;50.53;34.90;;;-1.30;91.00;;;;;;5017789;28;20052;-67
2022/04/02 04:02:02;;;;;;;61.38;39.15;;;-1.30;90.80;;;;;;5010689;28;20037;-69
2022/04/02 04:04:28;;;;;;;50.03;33.65;;;-1.40;90.70;;;;;;5031239;28;20399;-68
2022/04/02 04:06:56;;;;;;;50.95;34.30;;;-1.30;90.40;;;;;;5034398;28;20057;-67
2022/04/02 04:09:22;;;;;;;49.70;33.45;;;-1.30;90.50;;;;;;5031079;28;20112;-68
2022/04/02 04:11:48;;;;;;;50.60;33.60;;;-1.40;90.80;;;;;;5027123;28;20041;-68
2022/04/02 04:14:17;;;;;;;48.75;33.95;;;-1.40;90.60;;;;;;5027168;28;20710;-68
2022/04/02 04:16:46;;;;;;;47.65;32.63;;;-1.40;90.80;;;;;;5021618;28;20068;-67
2022/04/02 04:19:13;;;;;;;47.17;32.60;;;-1.40;90.00;;;;;;5026801;28;20424;-68
2022/04/02 04:21:40;;;;;;;50.17;33.38;;;-1.40;90.00;;;;;;5029096;28;20048;-68
2022/04/02 04:24:07;;;;;;;51.70;33.15;;;-1.40;89.90;;;;;;5023189;28;20026;-66
2022/04/02 04:26:33;;;;;;;46.55;32.00;;;-1.50;90.80;;;;;;5024228;28;20033;-68
2022/04/02 04:28:59;;;;;;;58.67;38.88;;;-1.50;90.30;;;;;;5023461;28;20025;-69
2022/04/02 04:31:25;;;;;;;50.35;34.22;;;-1.50;90.10;;;;;;5025948;28;20025;-67
2022/04/02 04:33:51;;;;;;;49.17;34.72;;;-1.50;90.00;;;;;;5028720;28;20025;-67
2022/04/02 04:36:24;;;;;;;43.47;31.20;;;-1.50;90.60;;;;;;5030881;28;20449;-67
2022/04/02 04:38:51;;;;;;;54.30;35.53;;;-1.50;90.40;;;;;;5032421;28;20026;-68
2022/04/02 04:41:18;;;;;;;45.10;31.30;;;-1.50;90.40;;;;;;5020626;28;20028;-68
2022/04/02 04:43:48;;;;;;;45.80;30.42;;;-1.50;90.30;;;;;;5020785;28;20071;-67
2022/04/02 04:46:18;;;;;;;41.45;30.83;;;-1.50;90.60;;;;;;5028843;28;20037;-68
2022/04/02 04:48:44;;;;;;;48.20;32.20;;;-1.50;90.70;;;;;;5033196;28;20407;-68
2022/04/02 04:51:11;;;;;;;43.80;28.83;;;-1.50;90.90;;;;;;5018616;28;20029;-68
2022/04/02 04:53:40;;;;;;;40.42;26.92;;;-1.60;91.40;;;;;;5020181;28;20025;-67
2022/04/02 04:56:07;;;;;;;40.97;29.63;;;-1.60;91.50;;;;;;5025116;28;20034;-68
2022/04/02 04:58:33;;;;;;;48.25;32.00;;;-1.60;91.50;;;;;;5025904;28;20070;-69
2022/04/02 05:00:59;;;;;;;43.92;31.50;;;-1.60;91.70;;;;;;5027898;28;20037;-68
2022/04/02 05:03:26;;;;;;;43.95;29.85;;;-1.60;91.70;;;;;;5028381;28;20135;-67
2022/04/02 05:05:53;;;;;;;34.05;24.60;;;-1.60;92.10;;;;;;5028185;28;20034;-68
2022/04/02 05:08:21;;;;;;;38.88;27.13;;;-1.60;93.00;;;;;;5029767;28;20013;-67
2022/04/02 05:10:52;;;;;;;37.83;26.92;;;-1.60;93.30;;;;;;5027837;28;20354;-68
2022/04/02 05:13:18;;;;;;;38.70;27.27;;;-1.60;93.00;;;;;;5030056;28;20017;-68
2022/04/02 05:15:46;;;;;;;35.08;24.23;;;-1.60;93.20;;;;;;5023424;28;20031;-68
2022/04/02 05:18:16;;;;;;;35.83;25.73;;;-1.60;93.30;;;;;;5026974;28;20028;-66
2022/04/02 05:20:42;;;;;;;36.90;24.35;;;-1.60;93.80;;;;;;5029087;28;20076;-68
2022/04/02 05:23:08;;;;;;;34.30;22.05;;;-1.60;93.50;;;;;;5022252;28;20026;-66
2022/04/02 05:25:35;;;;;;;32.90;21.85;;;-1.60;93.90;;;;;;5021368;28;20029;-65
2022/04/02 05:28:09;;;;;;;29.73;21.40;;;-1.60;94.00;;;;;;5032678;28;20415;-65
2022/04/02 05:30:39;;;;;;;31.75;21.58;;;-1.50;94.10;;;;;;5015823;28;20364;-66
2022/04/02 05:33:06;;;;;;;30.23;21.33;;;-1.50;95.30;;;;;;5028735;28;20058;-68
2022/04/02 05:35:32;;;;;;;35.40;21.25;;;-1.60;95.40;;;;;;5026027;28;20096;-67
2022/04/02 05:37:58;;;;;;;37.88;22.42;;;-1.60;95.70;;;;;;5027970;28;20037;-66
2022/04/02 05:40:24;;;;;;;35.22;24.42;;;-1.60;95.30;;;;;;5022439;28;20026;-67
2022/04/02 05:42:50;;;;;;;29.63;20.95;;;-1.60;95.50;;;;;;5023420;28;20427;-67
2022/04/02 05:45:16;;;;;;;29.05;22.02;;;-1.60;95.10;;;;;;5023758;28;20041;-66
2022/04/02 05:47:50;;;;;;;28.95;22.17;;;-1.60;95.30;;;;;;5032438;28;20022;-67
2022/04/02 05:50:19;;;;;;;;;;;-1.50;95.50;;;;;;5019942;28;20029;-67
2022/04/02 05:52:49;;;;;;;31.50;22.10;;;-1.60;95.30;;;;;;5020172;28;19913;-67
2022/04/02 05:55:15;;;;;;;35.20;22.23;;;-1.60;95.20;;;;;;5030597;28;20028;-68
2022/04/02 05:57:42;;;;;;;31.75;22.50;;;-1.60;94.40;;;;;;5026289;28;20514;-68
2022/04/02 06:00:10;;;;;;;26.63;20.55;;;-1.50;95.00;;;;;;5027357;28;20049;-68
2022/04/02 06:02:38;;;;;;;31.17;22.02;;;-1.50;95.10;;;;;;5023793;28;20034;-68
2022/04/02 06:05:07;;;;;;;38.38;24.40;;;-1.50;95.40;;;;;;5032247;28;20022;-68
2022/04/02 06:07:34;;;;;;;28.15;18.48;;;-1.50;95.30;;;;;;5028274;28;20236;-68
2022/04/02 06:10:02;;;;;;;30.42;21.23;;;-1.40;93.90;;;;;;5023174;28;20442;-68
2022/04/02 06:12:29;;;;;;;26.52;19.92;;;-1.40;95.90;;;;;;5025691;28;20321;-68
2022/04/02 06:14:55;;;;;;;28.40;20.48;;;-1.40;96.00;;;;;;5018202;28;20057;-68
2022/04/02 06:17:22;;;;;;;29.45;21.48;;;-1.40;96.00;;;;;;5021941;28;20052;-68
2022/04/02 06:19:49;;;;;;;25.27;18.35;;;-1.40;96.60;;;;;;5026880;28;20120;-68
2022/04/02 06:22:15;;;;;;;30.52;19.98;;;-1.40;95.50;;;;;;5030342;28;20006;-68
2022/04/02 06:24:40;;;;;;;24.85;16.55;;;-1.30;96.00;;;;;;5029725;28;20315;-68
2022/04/02 06:27:06;;;;;;;25.98;19.02;;;-1.30;95.50;;;;;;5020113;28;20362;-68
2022/04/02 06:29:32;;;;;;;26.35;19.10;;;-1.20;95.80;;;;;;5027378;28;20116;-68
2022/04/02 06:31:58;;;;;;;29.52;19.52;;;-1.10;96.10;;;;;;5028908;28;20107;-68
2022/04/02 06:34:24;;;;;;;23.15;16.98;;;-1.00;97.90;;;;;;5027118;28;20049;-67
2022/04/02 06:36:50;;;;;;;23.73;16.40;;;-1.10;97.30;;;;;;5023034;28;20107;-68
2022/04/02 06:39:16;;;;;;;25.55;17.95;;;-1.20;98.00;;;;;;5019150;28;20038;-69
2022/04/02 06:41:42;;;;;;;29.05;19.58;;;-1.30;98.00;;;;;;5025860;28;20044;-68
2022/04/02 06:44:11;;;;;;;21.73;16.10;;;-1.30;97.50;;;;;;5028516;28;20120;-66
2022/04/02 06:46:38;;;;;;;23.83;17.67;;;-1.30;98.00;;;;;;5023724;28;20038;-67
2022/04/02 06:49:06;;;;;;;24.48;17.15;;;-1.30;98.00;;;;;;5024300;28;20346;-66
2022/04/02 06:51:33;;;;;;;22.15;16.20;;;-1.20;97.90;;;;;;5020298;28;20442;-69
2022/04/02 06:53:59;;;;;;;34.80;22.45;;;-1.00;98.00;;;;;;5026444;28;20112;-68
2022/04/02 06:56:25;;;;;;;22.85;15.75;;;-1.00;98.00;;;;;;5022467;28;20041;-68
2022/04/02 06:58:51;;;;;;;21.10;16.00;;;-1.00;98.00;;;;;;5028299;28;20037;-67
2022/04/02 07:01:17;;;;;;;37.28;25.23;;;-0.90;98.00;;;;;;5024298;28;20433;-68
2022/04/02 07:03:43;;;;;;;20.33;16.00;;;-0.90;98.00;;;;;;5019337;28;20026;-67
2022/04/02 07:06:11;;;;;;;23.75;16.15;;;-0.90;98.00;;;;;;5027141;28;20095;-66
2022/04/02 07:08:37;;;;;;;22.77;16.35;;;-0.90;98.00;;;;;;5030707;28;20079;-67
2022/04/02 07:11:04;;;;;;;20.60;14.90;;;-0.90;98.00;;;;;;5030626;28;20128;-66
2022/04/02 07:13:30;;;;;;;16.92;13.27;;;-0.90;98.00;;;;;;5031088;28;20025;-67
2022/04/02 07:15:58;;;;;;;20.38;14.40;;;-0.80;98.00;;;;;;5029898;28;20026;-67
2022/04/02 07:18:25;;;;;;;22.73;17.70;;;-0.90;98.00;;;;;;5017537;28;20026;-67
2022/04/02 07:20:51;;;;;;;28.08;19.88;;;-1.10;98.00;;;;;;5032395;28;20334;-64
2022/04/02 07:23:18;;;;;;;23.58;18.27;;;-1.20;97.80;;;;;;5027954;28;20055;-65
2022/04/02 07:25:44;;;;;;;26.77;19.40;;;-1.30;97.80;;;;;;5022408;28;20060;-65
2022/04/02 07:28:13;;;;;;;24.52;18.75;;;-1.20;96.70;;;;;;5025103;28;20734;-66
2022/04/02 07:30:39;;;;;;;24.20;18.42;;;-1.20;96.80;;;;;;5021475;28;20116;-67
2022/04/02 07:33:07;;;;;;;23.52;18.05;;;-1.20;97.60;;;;;;5029786;28;20029;-67
2022/04/02 07:35:49;;;;;;;27.33;17.13;;;-1.20;97.50;;;;;;5024109;28;20029;-67
2022/04/02 07:38:37;;;;;;;21.27;16.50;;;-1.20;97.20;;;;;;5048648;28;20047;-66
2022/04/02 07:41:27;;;;;;;28.23;20.90;;;-1.20;97.40;;;;;;5037147;28;20440;-66
2022/04/02 07:44:03;;;;;;;25.80;18.85;;;-1.30;97.00;;;;;;5033789;28;20037;-67
2022/04/02 07:46:32;;;;;;;27.05;19.05;;;-1.30;96.40;;;;;;5020621;28;20109;-65
2022/04/02 07:48:59;;;;;;;29.10;20.50;;;-1.30;96.40;;;;;;5030622;28;20017;-67
2022/04/02 07:51:29;;;;;;;27.90;21.58;;;-1.30;96.60;;;;;;5039316;28;20022;-66
2022/04/02 07:54:01;;;;;;;26.15;19.27;;;-1.30;95.90;;;;;;5028823;28;20022;-65
2022/04/02 07:56:37;;;;;;;25.23;18.23;;;-1.30;96.30;;;;;;5029476;28;20026;-67
2022/04/02 07:59:11;;;;;;;20.88;16.38;;;-1.30;97.00;;;;;;5028795;28;20053;-66
2022/04/02 08:01:39;;;;;;;23.20;17.05;;;-1.20;96.60;;;;;;5031894;28;20025;-66
2022/04/02 08:04:05;;;;;;;23.48;17.23;;;-1.10;97.20;;;;;;5030715;28;20116;-65
2022/04/02 08:06:34;;;;;;;22.20;17.65;;;-1.20;96.90;;;;;;5035491;28;20105;-66
2022/04/02 08:09:03;;;;;;;20.42;16.30;;;-1.20;97.20;;;;;;5033201;28;20109;-65
2022/04/02 08:11:32;;;;;;;20.90;16.88;;;-1.00;96.00;;;;;;5022882;28;20053;-66
2022/04/02 08:13:59;;;;;;;27.38;16.08;;;-1.00;98.00;;;;;;5028339;28;20064;-65
2022/04/02 08:16:26;;;;;;;18.23;14.43;;;-1.00;97.70;;;;;;5033848;28;20047;-67
2022/04/02 08:18:57;;;;;;;21.00;15.48;;;-0.90;98.00;;;;;;5029811;28;20030;-66
2022/04/02 08:21:23;;;;;;;22.23;17.00;;;-1.00;98.00;;;;;;5032106;28;20108;-65
2022/04/02 08:23:52;;;;;;;22.55;16.15;;;-1.00;98.00;;;;;;5029082;28;20043;-65
2022/04/02 08:26:26;;;;;;;19.30;14.18;;;-0.90;98.00;;;;;;5051794;28;20024;-65
2022/04/02 08:29:23;;;;;;;19.45;14.68;;;-0.90;98.00;;;;;;5038439;28;20323;-70
2022/04/02 08:32:01;;;;;;;19.17;13.95;;;-0.80;98.00;;;;;;5030041;28;20022;-66
2022/04/02 08:34:35;;;;;;;18.75;13.40;;;-0.70;98.00;;;;;;5017899;28;20018;-65
2022/04/02 08:37:28;;;;;;;22.63;15.38;;;-0.60;98.00;;;;;;5027595;28;20026;-66
2022/04/02 08:39:59;;;;;;;16.23;12.88;;;-0.70;98.00;;;;;;5024187;28;20038;-65
2022/04/02 08:42:28;;;;;;;24.70;18.13;;;-0.70;98.00;;;;;;5017794;28;20018;-65
2022/04/02 08:45:10;;;;;;;20.73;15.15;;;-0.70;98.00;;;;;;5018730;28;20030;-64
2022/04/02 08:47:59;;;;;;;19.92;16.33;;;-0.70;98.00;;;;;;5023159;28;20078;-67
2022/04/02 08:50:34;;;;;;;23.65;17.48;;;-0.70;98.00;;;;;;5018708;28;20033;-68
2022/04/02 08:53:19;;;;;;;20.00;15.20;;;-0.80;98.00;;;;;;5023692;28;20029;-68
2022/04/02 08:55:55;;;;;;;19.95;15.90;;;-0.70;98.00;;;;;;5026799;28;20501;-68
2022/04/02 08:59:01;;;;;;;22.90;14.73;;;-0.70;98.00;;;;;;5022604;28;20030;-68
2022/04/02 09:01:33;;;;;;;21.60;14.93;;;-0.60;98.00;;;;;;5034979;28;20355;-68
2022/04/02 09:04:34;;;;;;;17.80;13.23;;;-0.30;98.00;;;;;;5056010;28;20031;-67
2022/04/02 09:07:48;;;;;;;19.25;13.57;;;-0.10;98.00;;;;;;5052868;28;20041;-67
2022/04/02 09:10:16;;;;;;;22.35;17.67;;;-0.30;98.00;;;;;;4997001;28;20105;-68
2022/04/02 09:13:09;;;;;;;16.50;13.02;;;-0.20;98.00;;;;;;5029074;28;20038;-68
2022/04/02 09:16:08;;;;;;;17.73;14.57;;;-0.30;98.00;;;;;;5024131;28;20048;-67
2022/04/02 09:19:10;;;;;;;14.43;10.85;;;-0.30;98.00;;;;;;5024493;28;20032;-68
2022/04/02 09:21:54;;;;;;;16.13;13.18;;;-0.20;98.00;;;;;;5034938;28;20026;-68
2022/04/02 09:24:39;;;;;;;;;;;-0.30;98.00;;;;;;5049892;28;20323;-66
2022/04/02 09:27:27;;;;;;;16.63;12.98;;;-0.20;98.00;;;;;;5018722;28;20013;-68
2022/04/02 09:30:11;;;;;;;18.27;13.27;;;-0.10;98.00;;;;;;5029814;28;20029;-68
2022/04/02 09:33:04;;;;;;;18.73;13.43;;;-0.20;98.00;;;;;;5017485;28;20319;-68
2022/04/02 09:35:39;;;;;;;20.92;14.63;;;-0.40;98.00;;;;;;5035333;28;20111;-68
2022/04/02 09:38:43;;;;;;;17.92;12.98;;;-0.30;98.00;;;;;;5027732;28;20044;-68
2022/04/02 09:41:34;;;;;;;16.65;12.90;;;-0.30;98.00;;;;;;5042603;28;20091;-67
2022/04/02 09:44:29;;;;;;;17.63;12.00;;;-0.40;98.00;;;;;;5032988;28;20402;-67
2022/04/02 09:47:04;;;;;;;19.75;13.63;;;-0.50;98.00;;;;;;5031100;28;20415;-68
2022/04/02 09:50:07;;;;;;;18.40;14.65;;;-0.40;98.00;;;;;;5030665;28;20028;-67
2022/04/02 09:52:44;;;;;;;20.15;13.82;;;-0.30;98.00;;;;;;5029510;28;20022;-67
2022/04/02 09:55:26;;;;;;;20.52;12.75;;;-0.40;98.00;;;;;;5035620;28;20092;-67
2022/04/02 09:58:23;;;;;;;17.27;11.95;;;-0.40;98.00;;;;;;5035000;28;20378;-68
2022/04/02 10:01:08;;;;;;;17.05;12.65;;;-0.20;98.00;;;;;;5020463;28;20034;-68
2022/04/02 10:03:59;;;;;;;15.38;10.80;;;-0.20;98.00;;;;;;5023426;28;20029;-68
2022/04/02 10:06:29;;;;;;;17.67;13.70;;;-0.20;98.00;;;;;;5020698;28;20022;-68
2022/04/02 10:09:10;;;;;;;18.05;12.73;;;-0.20;98.00;;;;;;5032731;28;20031;-67
2022/04/02 10:11:42;;;;;;;21.70;15.07;;;-0.30;98.00;;;;;;5040358;28;20046;-68
2022/04/02 10:14:08;;;;;;;17.83;13.25;;;-0.40;98.00;;;;;;5032284;28;20026;-67
2022/04/02 10:16:35;;;;;;;18.92;14.02;;;-0.40;98.00;;;;;;5036371;28;20022;-67
2022/04/02 10:19:06;;;;;;;23.42;15.20;;;-0.50;98.00;;;;;;5032036;28;20049;-69
2022/04/02 10:21:38;;;;;;;20.80;12.80;;;-0.60;98.00;;;;;;5026617;28;20033;-67
2022/04/02 10:24:18;;;;;;;21.02;14.10;;;-0.60;98.00;;;;;;5025600;28;20036;-67
2022/04/02 10:26:51;;;;;;;21.50;15.73;;;-0.50;98.00;;;;;;5017333;28;20030;-67
2022/04/02 10:29:36;;;;;;;22.25;15.02;;;-0.60;98.00;;;;;;5028705;28;20397;-64
2022/04/02 10:32:21;;;;;;;20.17;13.40;;;-0.70;98.00;;;;;;5033522;28;20112;-67
2022/04/02 10:35:02;;;;;;;21.00;15.88;;;-0.60;98.00;;;;;;5016987;28;20037;-67
2022/04/02 10:37:43;;;;;;;19.30;13.85;;;-0.20;98.00;;;;;;5030186;28;20025;-67
2022/04/02 10:40:16;;;;;;;18.88;13.63;;;-0.30;98.00;;;;;;5024538;28;20061;-66
2022/04/02 10:42:52;;;;;;;23.60;14.27;;;-0.20;98.00;;;;;;5016470;28;20319;-66
2022/04/02 10:45:19;;;;;;;18.23;13.40;;;0.00;98.00;;;;;;5024637;28;20037;-66
2022/04/02 10:47:49;;;;;;;18.15;12.68;;;0.20;98.00;;;;;;5027858;28;20113;-65
2022/04/02 10:50:19;;;;;;;18.92;15.25;;;0.40;98.00;;;;;;5031831;28;20093;-68
2022/04/02 10:52:50;;;;;;;21.65;12.73;;;0.30;98.00;;;;;;5022354;28;20044;-66
2022/04/02 10:55:17;;;;;;;18.08;13.88;;;0.30;98.00;;;;;;5029392;28;20028;-65
2022/04/02 10:57:44;;;;;;;16.85;13.27;;;0.20;98.00;;;;;;5028209;28;20057;-67
2022/04/02 11:00:11;;;;;;;16.02;12.20;;;0.30;98.00;;;;;;5018434;28;20026;-67
2022/04/02 11:02:39;;;;;;;16.58;12.68;;;0.50;98.00;;;;;;5021364;28;20025;-67
2022/04/02 11:05:07;;;;;;;20.08;14.23;;;0.60;98.00;;;;;;5023469;28;20455;-67
2022/04/02 11:07:40;;;;;;;17.45;13.93;;;0.30;98.00;;;;;;5016153;28;20316;-66
2022/04/02 11:10:07;;;;;;;16.60;12.33;;;0.20;98.00;;;;;;5019843;28;20042;-68
2022/04/02 11:12:41;;;;;;;23.70;17.33;;;0.40;98.00;;;;;;5025405;28;20076;-66
2022/04/02 11:15:08;;;;;;;;;;;0.30;98.00;;;;;;5024222;28;21903;-65
2022/04/02 11:17:46;;;;;;;20.10;13.63;;;0.30;98.00;;;;;;5028693;28;19963;-65
2022/04/02 11:20:12;;;;;;;20.98;14.65;;;0.60;98.00;;;;;;5022007;28;20033;-66
2022/04/02 11:22:51;;;;;;;18.40;14.23;;;0.40;98.00;;;;;;5022126;28;20033;-68
2022/04/02 11:25:31;;;;;;;22.45;15.68;;;0.40;98.00;;;;;;5025003;28;20383;-68
2022/04/02 11:28:14;;;;;;;19.17;14.75;;;0.10;98.00;;;;;;5018986;28;20108;-68
2022/04/02 11:30:46;;;;;;;21.50;15.02;;;0.10;98.00;;;;;;5020760;28;20025;-68
2022/04/02 11:33:21;;;;;;;20.02;15.93;;;0.30;98.00;;;;;;5019313;28;20029;-68
2022/04/02 11:35:55;;;;;;;22.67;16.08;;;0.50;98.00;;;;;;5022614;28;20092;-68
2022/04/02 11:38:29;;;;;;;26.40;17.23;;;0.60;98.00;;;;;;5016555;28;20022;-65
2022/04/02 11:41:14;;;;;;;24.85;18.45;;;0.90;98.00;;;;;;5018817;28;20033;-65
2022/04/02 11:43:40;;;;;;;18.80;14.15;;;0.80;98.00;;;;;;5029490;28;20080;-67
2022/04/02 11:46:14;;;;;;;19.58;14.80;;;0.80;98.00;;;;;;5030922;28;20033;-66
2022/04/02 11:48:57;;;;;;;21.60;15.90;;;0.70;98.00;;;;;;5029945;28;20088;-68
2022/04/02 11:51:26;;;;;;;20.77;16.00;;;0.60;98.00;;;;;;5021365;28;20022;-67
2022/04/02 11:54:00;;;;;;;18.58;14.73;;;0.60;98.00;;;;;;5015216;28;20024;-65
2022/04/02 11:56:32;;;;;;;23.60;17.67;;;0.40;98.00;;;;;;5026371;28;20018;-66
2022/04/02 11:59:07;;;;;;;24.55;17.77;;;0.30;98.00;;;;;;5048575;28;20021;-66
2022/04/02 12:01:51;;;;;;;20.05;14.95;;;0.10;98.00;;;;;;5016245;28;20037;-65
2022/04/02 12:04:25;;;;;;;24.08;18.50;;;0.20;98.00;;;;;;5018119;28;20037;-65
2022/04/02 12:07:12;;;;;;;;;;;0.20;98.00;;;;;;5021953;28;20040;-66
2022/04/02 12:09:51;;;;;;;25.27;17.58;;;0.20;98.00;;;;;;5022575;28;19956;-66
2022/04/02 12:12:23;;;;;;;20.63;16.00;;;0.60;98.00;;;;;;5028010;28;20543;-66
2022/04/02 12:14:58;;;;;;;25.33;17.98;;;1.00;98.00;;;;;;5022978;28;20206;-67
2022/04/02 12:17:34;;;;;;;22.40;16.60;;;0.90;98.00;;;;;;5017248;28;20441;-66
2022/04/02 12:20:01;;;;;;;23.75;16.92;;;0.90;98.00;;;;;;5024714;28;20096;-67
2022/04/02 12:22:33;;;;;;;24.60;17.92;;;0.80;98.00;;;;;;5021655;28;20692;-67
2022/04/02 12:25:13;;;;;;;24.73;17.70;;;0.60;98.00;;;;;;5029159;28;20022;-67
2022/04/02 12:27:50;;;;;;;25.73;17.35;;;0.60;98.00;;;;;;5032849;28;20049;-68
2022/04/02 12:30:23;;;;;;;23.10;16.70;;;0.40;98.00;;;;;;5031543;28;20441;-67
2022/04/02 12:32:48;;;;;;;25.92;18.75;;;0.40;98.00;;;;;;5033039;28;20386;-68
2022/04/02 12:35:24;;;;;;;26.60;20.10;;;0.10;98.00;;;;;;5028824;28;20061;-68
2022/04/02 12:38:00;;;;;;;20.90;17.02;;;-0.20;98.00;;;;;;5026484;28;20364;-66
2022/04/02 12:40:27;;;;;;;22.35;17.20;;;-0.20;98.00;;;;;;5032204;28;20160;-68
2022/04/02 12:43:07;;;;;;;42.92;26.55;;;0.10;98.00;;;;;;5031270;28;20562;-67
2022/04/02 12:45:37;;;;;;;31.42;21.02;;;0.20;98.00;;;;;;5003442;28;20033;-68
2022/04/02 12:48:07;;;;;;;23.65;17.85;;;0.20;98.00;;;;;;5035926;28;20026;-66
2022/04/02 12:50:50;;;;;;;20.38;16.60;;;0.20;98.00;;;;;;5037631;28;20032;-66
2022/04/02 12:53:38;;;;;;;25.33;18.83;;;0.20;98.00;;;;;;5034574;28;20053;-67